sensor_id;sensor_type;location;lat;lon;timestamp;P1;durP1;ratioP1;P2;durP2;ratioP2
47219;SDS011;32961;51.936;4.788;2023-04-25T00:02:04;21.70;;;4.95;;
47219;SDS011;32961;51.936;4.788;2023-04-25T00:04:33;18.35;;;3.50;;
47219;SDS011;32961;51.936;4.788;2023-04-25T00:07:03;16.70;;;3.78;;
47219;SDS011;32961;51.936;4.788;2023-04-25T00:09:31;19.90;;;3.80;;
47219;SDS011;32961;51.936;4.788;2023-04-25T00:11:59;24.25;;;4.20;;
47219;SDS011;32961;51.936;4.788;2023-04-25T00:14:28;27.05;;;4.35;;
47219;SDS011;32961;51.936;4.788;2023-04-25T00:16:56;17.52;;;3.60;;
47219;SDS011;32961;51.936;4.788;2023-04-25T00:19:25;18.02;;;3.35;;
47219;SDS011;32961;51.936;4.788;2023-04-25T00:21:54;24.48;;;5.28;;
47219;SDS011;32961;51.936;4.788;2023-04-25T00:24:23;24.02;;;4.95;;
47219;SDS011;32961;51.936;4.788;2023-04-25T00:26:51;27.05;;;4.32;;
47219;SDS011;32961;51.936;4.788;2023-04-25T00:29:19;23.20;;;4.15;;
47219;SDS011;32961;51.936;4.788;2023-04-25T00:31:47;18.92;;;4.40;;
47219;SDS011;32961;51.936;4.788;2023-04-25T00:34:14;25.48;;;5.47;;
47219;SDS011;32961;51.936;4.788;2023-04-25T00:36:42;22.70;;;4.15;;
47219;SDS011;32961;51.936;4.788;2023-04-25T00:39:10;22.05;;;4.97;;
47219;SDS011;32961;51.936;4.788;2023-04-25T00:41:40;14.98;;;3.97;;
47219;SDS011;32961;51.936;4.788;2023-04-25T00:44:09;15.00;;;3.85;;
47219;SDS011;32961;51.936;4.788;2023-04-25T00:46:39;21.65;;;4.25;;
47219;SDS011;32961;51.936;4.788;2023-04-25T00:49:08;22.65;;;4.68;;
47219;SDS011;32961;51.936;4.788;2023-04-25T00:51:41;18.52;;;3.63;;
47219;SDS011;32961;51.936;4.788;2023-04-25T00:54:10;17.52;;;3.47;;
47219;SDS011;32961;51.936;4.788;2023-04-25T00:56:40;21.48;;;4.45;;
47219;SDS011;32961;51.936;4.788;2023-04-25T00:59:12;21.67;;;4.72;;
47219;SDS011;32961;51.936;4.788;2023-04-25T01:01:41;20.35;;;4.00;;
47219;SDS011;32961;51.936;4.788;2023-04-25T01:04:12;19.10;;;4.15;;
47219;SDS011;32961;51.936;4.788;2023-04-25T01:06:41;24.20;;;4.80;;
47219;SDS011;32961;51.936;4.788;2023-04-25T01:09:09;22.30;;;4.82;;
47219;SDS011;32961;51.936;4.788;2023-04-25T01:11:36;14.10;;;3.78;;
47219;SDS011;32961;51.936;4.788;2023-04-25T01:14:08;20.65;;;4.85;;
47219;SDS011;32961;51.936;4.788;2023-04-25T01:16:36;28.40;;;5.30;;
47219;SDS011;32961;51.936;4.788;2023-04-25T01:19:05;23.30;;;3.97;;
47219;SDS011;32961;51.936;4.788;2023-04-25T01:21:38;26.02;;;3.95;;
47219;SDS011;32961;51.936;4.788;2023-04-25T01:24:06;15.98;;;3.60;;
47219;SDS011;32961;51.936;4.788;2023-04-25T01:26:35;28.17;;;4.20;;
47219;SDS011;32961;51.936;4.788;2023-04-25T01:29:03;18.30;;;4.57;;
47219;SDS011;32961;51.936;4.788;2023-04-25T01:31:31;25.55;;;4.15;;
47219;SDS011;32961;51.936;4.788;2023-04-25T01:34:00;24.08;;;5.20;;
47219;SDS011;32961;51.936;4.788;2023-04-25T01:36:28;20.30;;;4.95;;
47219;SDS011;32961;51.936;4.788;2023-04-25T01:38:58;14.95;;;4.50;;
47219;SDS011;32961;51.936;4.788;2023-04-25T01:41:27;24.35;;;4.25;;
47219;SDS011;32961;51.936;4.788;2023-04-25T01:43:55;25.15;;;4.40;;
47219;SDS011;32961;51.936;4.788;2023-04-25T01:46:23;23.58;;;5.30;;
47219;SDS011;32961;51.936;4.788;2023-04-25T01:48:51;21.05;;;3.90;;
47219;SDS011;32961;51.936;4.788;2023-04-25T01:51:19;16.98;;;4.57;;
47219;SDS011;32961;51.936;4.788;2023-04-25T01:53:47;19.58;;;4.63;;
47219;SDS011;32961;51.936;4.788;2023-04-25T01:56:18;25.98;;;5.93;;
47219;SDS011;32961;51.936;4.788;2023-04-25T01:58:46;23.38;;;5.70;;
47219;SDS011;32961;51.936;4.788;2023-04-25T02:01:14;17.65;;;4.03;;
47219;SDS011;32961;51.936;4.788;2023-04-25T02:03:42;15.95;;;3.80;;
47219;SDS011;32961;51.936;4.788;2023-04-25T02:06:11;21.17;;;4.60;;
47219;SDS011;32961;51.936;4.788;2023-04-25T02:08:38;16.92;;;3.65;;
47219;SDS011;32961;51.936;4.788;2023-04-25T02:11:06;19.50;;;4.47;;
47219;SDS011;32961;51.936;4.788;2023-04-25T02:13:36;22.77;;;3.90;;
47219;SDS011;32961;51.936;4.788;2023-04-25T02:16:04;17.02;;;4.45;;
47219;SDS011;32961;51.936;4.788;2023-04-25T02:18:32;21.63;;;3.38;;
47219;SDS011;32961;51.936;4.788;2023-04-25T02:21:00;17.48;;;3.50;;
47219;SDS011;32961;51.936;4.788;2023-04-25T02:23:29;14.90;;;3.42;;
47219;SDS011;32961;51.936;4.788;2023-04-25T02:25:57;15.18;;;4.57;;
47219;SDS011;32961;51.936;4.788;2023-04-25T02:28:25;19.15;;;4.55;;
47219;SDS011;32961;51.936;4.788;2023-04-25T02:30:54;16.77;;;3.88;;
47219;SDS011;32961;51.936;4.788;2023-04-25T02:33:22;15.48;;;3.55;;
47219;SDS011;32961;51.936;4.788;2023-04-25T02:35:50;15.13;;;3.80;;
47219;SDS011;32961;51.936;4.788;2023-04-25T02:38:18;18.40;;;4.53;;
47219;SDS011;32961;51.936;4.788;2023-04-25T02:40:45;22.50;;;4.97;;
47219;SDS011;32961;51.936;4.788;2023-04-25T02:43:13;23.50;;;4.03;;
47219;SDS011;32961;51.936;4.788;2023-04-25T02:45:42;23.50;;;4.13;;
47219;SDS011;32961;51.936;4.788;2023-04-25T02:48:11;23.50;;;3.92;;
47219;SDS011;32961;51.936;4.788;2023-04-25T02:50:39;16.85;;;4.28;;
47219;SDS011;32961;51.936;4.788;2023-04-25T02:53:07;12.30;;;3.05;;
47219;SDS011;32961;51.936;4.788;2023-04-25T02:55:35;15.20;;;3.75;;
47219;SDS011;32961;51.936;4.788;2023-04-25T02:58:02;16.90;;;4.22;;
47219;SDS011;32961;51.936;4.788;2023-04-25T03:00:30;16.85;;;3.22;;
47219;SDS011;32961;51.936;4.788;2023-04-25T03:02:58;18.33;;;4.38;;
47219;SDS011;32961;51.936;4.788;2023-04-25T03:05:28;13.30;;;3.25;;
47219;SDS011;32961;51.936;4.788;2023-04-25T03:07:55;17.77;;;3.88;;
47219;SDS011;32961;51.936;4.788;2023-04-25T03:10:23;18.40;;;4.35;;
47219;SDS011;32961;51.936;4.788;2023-04-25T03:12:51;15.43;;;3.55;;
47219;SDS011;32961;51.936;4.788;2023-04-25T03:15:19;14.18;;;3.47;;
47219;SDS011;32961;51.936;4.788;2023-04-25T03:17:47;21.88;;;3.80;;
47219;SDS011;32961;51.936;4.788;2023-04-25T03:20:15;17.95;;;3.63;;
47219;SDS011;32961;51.936;4.788;2023-04-25T03:22:44;19.90;;;5.05;;
47219;SDS011;32961;51.936;4.788;2023-04-25T03:25:12;16.33;;;4.30;;
47219;SDS011;32961;51.936;4.788;2023-04-25T03:27:40;15.43;;;3.95;;
47219;SDS011;32961;51.936;4.788;2023-04-25T03:30:08;17.88;;;3.25;;
47219;SDS011;32961;51.936;4.788;2023-04-25T03:32:36;19.33;;;4.60;;
47219;SDS011;32961;51.936;4.788;2023-04-25T03:35:04;12.35;;;3.33;;
47219;SDS011;32961;51.936;4.788;2023-04-25T03:37:32;16.63;;;3.42;;
47219;SDS011;32961;51.936;4.788;2023-04-25T03:40:02;17.00;;;3.63;;
47219;SDS011;32961;51.936;4.788;2023-04-25T03:42:30;17.85;;;4.43;;
47219;SDS011;32961;51.936;4.788;2023-04-25T03:44:58;22.08;;;4.13;;
47219;SDS011;32961;51.936;4.788;2023-04-25T03:47:26;12.43;;;3.33;;
47219;SDS011;32961;51.936;4.788;2023-04-25T03:49:54;19.40;;;4.97;;
47219;SDS011;32961;51.936;4.788;2023-04-25T03:52:21;17.70;;;4.05;;
47219;SDS011;32961;51.936;4.788;2023-04-25T03:54:49;16.20;;;3.50;;
47219;SDS011;32961;51.936;4.788;2023-04-25T03:57:18;17.20;;;4.63;;
47219;SDS011;32961;51.936;4.788;2023-04-25T03:59:46;17.20;;;3.67;;
47219;SDS011;32961;51.936;4.788;2023-04-25T04:02:14;18.67;;;5.30;;
47219;SDS011;32961;51.936;4.788;2023-04-25T04:04:42;12.57;;;3.83;;
47219;SDS011;32961;51.936;4.788;2023-04-25T04:07:11;16.80;;;3.58;;
47219;SDS011;32961;51.936;4.788;2023-04-25T04:09:40;16.90;;;3.55;;
47219;SDS011;32961;51.936;4.788;2023-04-25T04:12:43;17.77;;;3.40;;
47219;SDS011;32961;51.936;4.788;2023-04-25T04:15:11;30.83;;;5.97;;
47219;SDS011;32961;51.936;4.788;2023-04-25T04:17:39;19.55;;;4.13;;
47219;SDS011;32961;51.936;4.788;2023-04-25T04:20:14;16.90;;;3.35;;
47219;SDS011;32961;51.936;4.788;2023-04-25T04:22:44;14.77;;;2.95;;
47219;SDS011;32961;51.936;4.788;2023-04-25T04:25:12;8.98;;;2.47;;
47219;SDS011;32961;51.936;4.788;2023-04-25T04:27:44;19.02;;;3.40;;
47219;SDS011;32961;51.936;4.788;2023-04-25T04:30:12;12.57;;;2.63;;
47219;SDS011;32961;51.936;4.788;2023-04-25T04:32:43;9.85;;;2.72;;
47219;SDS011;32961;51.936;4.788;2023-04-25T04:35:11;17.27;;;3.08;;
47219;SDS011;32961;51.936;4.788;2023-04-25T04:37:39;9.40;;;2.53;;
47219;SDS011;32961;51.936;4.788;2023-04-25T04:40:07;13.82;;;2.78;;
47219;SDS011;32961;51.936;4.788;2023-04-25T04:42:36;16.13;;;2.55;;
47219;SDS011;32961;51.936;4.788;2023-04-25T04:45:06;15.65;;;2.42;;
47219;SDS011;32961;51.936;4.788;2023-04-25T04:47:34;18.52;;;3.05;;
47219;SDS011;32961;51.936;4.788;2023-04-25T04:50:03;18.48;;;4.50;;
47219;SDS011;32961;51.936;4.788;2023-04-25T04:52:33;13.68;;;4.97;;
47219;SDS011;32961;51.936;4.788;2023-04-25T04:55:04;20.23;;;2.53;;
47219;SDS011;32961;51.936;4.788;2023-04-25T04:57:34;15.30;;;3.10;;
47219;SDS011;32961;51.936;4.788;2023-04-25T05:00:02;18.00;;;2.92;;
47219;SDS011;32961;51.936;4.788;2023-04-25T05:02:35;12.60;;;2.33;;
47219;SDS011;32961;51.936;4.788;2023-04-25T05:05:04;10.98;;;2.22;;
47219;SDS011;32961;51.936;4.788;2023-04-25T05:07:33;11.32;;;2.45;;
47219;SDS011;32961;51.936;4.788;2023-04-25T05:10:01;11.82;;;2.33;;
47219;SDS011;32961;51.936;4.788;2023-04-25T05:12:29;11.07;;;2.30;;
47219;SDS011;32961;51.936;4.788;2023-04-25T05:14:56;8.88;;;2.33;;
47219;SDS011;32961;51.936;4.788;2023-04-25T05:17:24;18.13;;;2.55;;
47219;SDS011;32961;51.936;4.788;2023-04-25T05:19:53;14.07;;;2.33;;
47219;SDS011;32961;51.936;4.788;2023-04-25T05:22:22;14.73;;;2.88;;
47219;SDS011;32961;51.936;4.788;2023-04-25T05:24:50;17.85;;;5.22;;
47219;SDS011;32961;51.936;4.788;2023-04-25T05:27:21;11.15;;;3.50;;
47219;SDS011;32961;51.936;4.788;2023-04-25T05:29:49;9.18;;;2.25;;
47219;SDS011;32961;51.936;4.788;2023-04-25T05:32:17;9.88;;;2.45;;
47219;SDS011;32961;51.936;4.788;2023-04-25T05:34:45;9.05;;;2.25;;
47219;SDS011;32961;51.936;4.788;2023-04-25T05:37:14;10.23;;;1.98;;
47219;SDS011;32961;51.936;4.788;2023-04-25T05:39:42;11.77;;;2.63;;
47219;SDS011;32961;51.936;4.788;2023-04-25T05:42:13;9.30;;;2.53;;
47219;SDS011;32961;51.936;4.788;2023-04-25T05:44:41;8.70;;;1.70;;
47219;SDS011;32961;51.936;4.788;2023-04-25T05:47:08;8.43;;;2.33;;
47219;SDS011;32961;51.936;4.788;2023-04-25T05:49:36;10.77;;;2.15;;
47219;SDS011;32961;51.936;4.788;2023-04-25T05:52:04;7.78;;;2.00;;
47219;SDS011;32961;51.936;4.788;2023-04-25T05:54:33;13.52;;;2.47;;
47219;SDS011;32961;51.936;4.788;2023-04-25T05:57:01;13.38;;;3.47;;
47219;SDS011;32961;51.936;4.788;2023-04-25T05:59:29;13.20;;;2.65;;
47219;SDS011;32961;51.936;4.788;2023-04-25T06:01:57;9.57;;;1.88;;
47219;SDS011;32961;51.936;4.788;2023-04-25T06:04:25;15.20;;;2.97;;
47219;SDS011;32961;51.936;4.788;2023-04-25T06:06:53;13.75;;;2.63;;
47219;SDS011;32961;51.936;4.788;2023-04-25T06:09:20;9.77;;;2.60;;
47219;SDS011;32961;51.936;4.788;2023-04-25T06:11:54;8.77;;;3.20;;
47219;SDS011;32961;51.936;4.788;2023-04-25T06:16:50;12.85;;;3.33;;
47219;SDS011;32961;51.936;4.788;2023-04-25T06:19:20;10.75;;;2.15;;
47219;SDS011;32961;51.936;4.788;2023-04-25T06:21:49;5.70;;;1.27;;
47219;SDS011;32961;51.936;4.788;2023-04-25T06:24:36;17.60;;;7.28;;
47219;SDS011;32961;51.936;4.788;2023-04-25T06:27:05;10.07;;;2.50;;
47219;SDS011;32961;51.936;4.788;2023-04-25T06:29:33;12.65;;;4.00;;
47219;SDS011;32961;51.936;4.788;2023-04-25T06:32:01;6.47;;;1.95;;
47219;SDS011;32961;51.936;4.788;2023-04-25T06:34:29;7.25;;;1.73;;
47219;SDS011;32961;51.936;4.788;2023-04-25T06:36:57;11.15;;;2.13;;
47219;SDS011;32961;51.936;4.788;2023-04-25T06:39:25;8.43;;;1.60;;
47219;SDS011;32961;51.936;4.788;2023-04-25T06:41:53;8.57;;;1.90;;
47219;SDS011;32961;51.936;4.788;2023-04-25T06:44:23;12.90;;;2.53;;
47219;SDS011;32961;51.936;4.788;2023-04-25T06:46:52;14.27;;;1.65;;
47219;SDS011;32961;51.936;4.788;2023-04-25T06:49:20;6.57;;;1.50;;
47219;SDS011;32961;51.936;4.788;2023-04-25T06:51:48;5.65;;;2.15;;
47219;SDS011;32961;51.936;4.788;2023-04-25T06:54:16;7.93;;;2.08;;
47219;SDS011;32961;51.936;4.788;2023-04-25T06:56:45;8.93;;;1.95;;
47219;SDS011;32961;51.936;4.788;2023-04-25T06:59:13;11.02;;;1.98;;
47219;SDS011;32961;51.936;4.788;2023-04-25T07:01:42;11.00;;;2.67;;
47219;SDS011;32961;51.936;4.788;2023-04-25T07:04:10;11.73;;;2.83;;
47219;SDS011;32961;51.936;4.788;2023-04-25T07:06:47;8.10;;;1.80;;
47219;SDS011;32961;51.936;4.788;2023-04-25T07:09:15;6.28;;;1.50;;
47219;SDS011;32961;51.936;4.788;2023-04-25T07:11:44;9.07;;;3.03;;
47219;SDS011;32961;51.936;4.788;2023-04-25T07:14:12;7.53;;;1.38;;
47219;SDS011;32961;51.936;4.788;2023-04-25T07:16:40;6.80;;;1.90;;
47219;SDS011;32961;51.936;4.788;2023-04-25T07:19:09;8.18;;;1.73;;
47219;SDS011;32961;51.936;4.788;2023-04-25T07:21:37;4.93;;;1.38;;
47219;SDS011;32961;51.936;4.788;2023-04-25T07:24:07;6.38;;;1.27;;
47219;SDS011;32961;51.936;4.788;2023-04-25T07:26:35;6.13;;;1.30;;
47219;SDS011;32961;51.936;4.788;2023-04-25T07:29:09;4.32;;;1.40;;
47219;SDS011;32961;51.936;4.788;2023-04-25T07:31:37;7.20;;;1.65;;
47219;SDS011;32961;51.936;4.788;2023-04-25T07:34:05;5.88;;;1.67;;
47219;SDS011;32961;51.936;4.788;2023-04-25T07:36:43;8.18;;;1.63;;
47219;SDS011;32961;51.936;4.788;2023-04-25T07:39:11;5.95;;;1.90;;
47219;SDS011;32961;51.936;4.788;2023-04-25T07:41:40;8.43;;;1.75;;
47219;SDS011;32961;51.936;4.788;2023-04-25T07:44:08;6.60;;;1.65;;
47219;SDS011;32961;51.936;4.788;2023-04-25T07:46:36;12.13;;;2.17;;
47219;SDS011;32961;51.936;4.788;2023-04-25T07:49:04;8.57;;;1.80;;
47219;SDS011;32961;51.936;4.788;2023-04-25T07:51:32;8.15;;;2.00;;
47219;SDS011;32961;51.936;4.788;2023-04-25T07:54:01;8.32;;;1.60;;
47219;SDS011;32961;51.936;4.788;2023-04-25T07:56:29;7.75;;;1.70;;
47219;SDS011;32961;51.936;4.788;2023-04-25T07:59:14;10.77;;;1.80;;
47219;SDS011;32961;51.936;4.788;2023-04-25T08:01:48;6.57;;;1.73;;
47219;SDS011;32961;51.936;4.788;2023-04-25T08:04:18;12.55;;;2.70;;
47219;SDS011;32961;51.936;4.788;2023-04-25T08:06:47;15.00;;;1.90;;
47219;SDS011;32961;51.936;4.788;2023-04-25T08:09:16;13.68;;;2.25;;
47219;SDS011;32961;51.936;4.788;2023-04-25T08:11:44;12.15;;;2.20;;
47219;SDS011;32961;51.936;4.788;2023-04-25T08:14:15;10.15;;;1.67;;
47219;SDS011;32961;51.936;4.788;2023-04-25T08:16:46;7.50;;;1.75;;
47219;SDS011;32961;51.936;4.788;2023-04-25T08:19:13;13.75;;;2.20;;
47219;SDS011;32961;51.936;4.788;2023-04-25T08:21:45;13.13;;;2.20;;
47219;SDS011;32961;51.936;4.788;2023-04-25T08:24:20;14.18;;;3.17;;
47219;SDS011;32961;51.936;4.788;2023-04-25T08:26:48;9.90;;;1.50;;
47219;SDS011;32961;51.936;4.788;2023-04-25T08:29:16;4.13;;;1.77;;
47219;SDS011;32961;51.936;4.788;2023-04-25T08:31:44;14.43;;;2.15;;
47219;SDS011;32961;51.936;4.788;2023-04-25T08:34:13;9.65;;;1.48;;
47219;SDS011;32961;51.936;4.788;2023-04-25T08:36:41;10.02;;;2.33;;
47219;SDS011;32961;51.936;4.788;2023-04-25T08:39:10;6.40;;;1.60;;
47219;SDS011;32961;51.936;4.788;2023-04-25T08:41:43;9.75;;;2.08;;
47219;SDS011;32961;51.936;4.788;2023-04-25T08:44:13;14.48;;;1.83;;
47219;SDS011;32961;51.936;4.788;2023-04-25T08:46:41;11.10;;;2.70;;
47219;SDS011;32961;51.936;4.788;2023-04-25T08:49:23;11.52;;;2.55;;
47219;SDS011;32961;51.936;4.788;2023-04-25T08:51:52;12.60;;;2.15;;
47219;SDS011;32961;51.936;4.788;2023-04-25T08:54:25;10.85;;;1.80;;
47219;SDS011;32961;51.936;4.788;2023-04-25T08:57:03;16.50;;;2.22;;
47219;SDS011;32961;51.936;4.788;2023-04-25T08:59:32;6.60;;;1.60;;
47219;SDS011;32961;51.936;4.788;2023-04-25T09:02:20;8.80;;;1.58;;
47219;SDS011;32961;51.936;4.788;2023-04-25T09:04:48;10.43;;;1.73;;
47219;SDS011;32961;51.936;4.788;2023-04-25T09:07:17;10.70;;;1.80;;
47219;SDS011;32961;51.936;4.788;2023-04-25T09:09:47;7.90;;;1.15;;
47219;SDS011;32961;51.936;4.788;2023-04-25T09:12:17;8.32;;;1.40;;
47219;SDS011;32961;51.936;4.788;2023-04-25T09:15:00;7.88;;;1.35;;
47219;SDS011;32961;51.936;4.788;2023-04-25T09:17:30;7.85;;;1.45;;
47219;SDS011;32961;51.936;4.788;2023-04-25T09:20:21;9.68;;;1.50;;
47219;SDS011;32961;51.936;4.788;2023-04-25T09:23:03;9.15;;;1.73;;
47219;SDS011;32961;51.936;4.788;2023-04-25T09:25:33;9.45;;;1.20;;
47219;SDS011;32961;51.936;4.788;2023-04-25T09:28:06;9.65;;;1.73;;
47219;SDS011;32961;51.936;4.788;2023-04-25T09:30:35;11.48;;;1.63;;
47219;SDS011;32961;51.936;4.788;2023-04-25T09:33:04;7.82;;;1.23;;
47219;SDS011;32961;51.936;4.788;2023-04-25T09:35:37;5.00;;;1.45;;
47219;SDS011;32961;51.936;4.788;2023-04-25T09:38:09;5.90;;;1.48;;
47219;SDS011;32961;51.936;4.788;2023-04-25T09:40:39;8.45;;;1.70;;
47219;SDS011;32961;51.936;4.788;2023-04-25T09:43:13;10.80;;;1.60;;
47219;SDS011;32961;51.936;4.788;2023-04-25T09:45:46;9.63;;;2.28;;
47219;SDS011;32961;51.936;4.788;2023-04-25T09:48:18;5.63;;;1.20;;
47219;SDS011;32961;51.936;4.788;2023-04-25T09:50:51;5.68;;;1.20;;
47219;SDS011;32961;51.936;4.788;2023-04-25T09:53:31;8.52;;;1.45;;
47219;SDS011;32961;51.936;4.788;2023-04-25T09:55:59;5.75;;;1.35;;
47219;SDS011;32961;51.936;4.788;2023-04-25T09:58:29;4.35;;;1.00;;
47219;SDS011;32961;51.936;4.788;2023-04-25T10:00:59;4.45;;;1.10;;
47219;SDS011;32961;51.936;4.788;2023-04-25T10:03:29;10.48;;;1.83;;
47219;SDS011;32961;51.936;4.788;2023-04-25T10:05:59;5.95;;;1.30;;
47219;SDS011;32961;51.936;4.788;2023-04-25T10:08:29;9.38;;;1.70;;
47219;SDS011;32961;51.936;4.788;2023-04-25T10:10:59;9.07;;;1.58;;
47219;SDS011;32961;51.936;4.788;2023-04-25T10:13:30;6.38;;;1.30;;
47219;SDS011;32961;51.936;4.788;2023-04-25T10:16:00;5.30;;;1.13;;
47219;SDS011;32961;51.936;4.788;2023-04-25T10:18:31;7.15;;;2.55;;
47219;SDS011;32961;51.936;4.788;2023-04-25T10:21:03;5.68;;;1.80;;
47219;SDS011;32961;51.936;4.788;2023-04-25T10:23:32;8.82;;;2.30;;
47219;SDS011;32961;51.936;4.788;2023-04-25T10:26:01;7.55;;;1.63;;
47219;SDS011;32961;51.936;4.788;2023-04-25T10:28:30;9.85;;;2.58;;
47219;SDS011;32961;51.936;4.788;2023-04-25T10:31:25;9.38;;;1.88;;
47219;SDS011;32961;51.936;4.788;2023-04-25T10:33:53;11.30;;;2.70;;
47219;SDS011;32961;51.936;4.788;2023-04-25T10:36:22;7.68;;;1.75;;
47219;SDS011;32961;51.936;4.788;2023-04-25T10:38:51;14.60;;;2.20;;
47219;SDS011;32961;51.936;4.788;2023-04-25T10:41:20;8.68;;;1.75;;
47219;SDS011;32961;51.936;4.788;2023-04-25T10:43:58;9.32;;;1.45;;
47219;SDS011;32961;51.936;4.788;2023-04-25T10:46:33;20.83;;;7.78;;
47219;SDS011;32961;51.936;4.788;2023-04-25T10:49:02;9.75;;;1.70;;
47219;SDS011;32961;51.936;4.788;2023-04-25T10:51:32;5.18;;;1.60;;
47219;SDS011;32961;51.936;4.788;2023-04-25T10:54:04;9.05;;;1.30;;
47219;SDS011;32961;51.936;4.788;2023-04-25T10:56:35;4.85;;;1.42;;
47219;SDS011;32961;51.936;4.788;2023-04-25T10:59:07;8.45;;;1.88;;
47219;SDS011;32961;51.936;4.788;2023-04-25T11:01:39;7.80;;;1.80;;
47219;SDS011;32961;51.936;4.788;2023-04-25T11:04:20;7.63;;;1.45;;
47219;SDS011;32961;51.936;4.788;2023-04-25T11:09:39;6.57;;;1.85;;
47219;SDS011;32961;51.936;4.788;2023-04-25T11:12:12;12.48;;;1.75;;
47219;SDS011;32961;51.936;4.788;2023-04-25T11:14:44;8.98;;;2.53;;
47219;SDS011;32961;51.936;4.788;2023-04-25T11:17:12;4.35;;;1.30;;
47219;SDS011;32961;51.936;4.788;2023-04-25T11:19:42;6.57;;;1.40;;
47219;SDS011;32961;51.936;4.788;2023-04-25T11:22:10;10.90;;;1.75;;
47219;SDS011;32961;51.936;4.788;2023-04-25T11:24:39;8.10;;;1.48;;
47219;SDS011;32961;51.936;4.788;2023-04-25T11:27:07;7.18;;;1.60;;
47219;SDS011;32961;51.936;4.788;2023-04-25T11:29:35;7.13;;;1.55;;
47219;SDS011;32961;51.936;4.788;2023-04-25T11:32:05;9.98;;;1.83;;
47219;SDS011;32961;51.936;4.788;2023-04-25T11:34:33;7.82;;;1.58;;
47219;SDS011;32961;51.936;4.788;2023-04-25T11:37:02;9.32;;;1.88;;
47219;SDS011;32961;51.936;4.788;2023-04-25T11:39:30;8.73;;;1.80;;
47219;SDS011;32961;51.936;4.788;2023-04-25T11:41:58;4.88;;;1.52;;
47219;SDS011;32961;51.936;4.788;2023-04-25T11:44:29;7.50;;;1.25;;
47219;SDS011;32961;51.936;4.788;2023-04-25T11:46:57;5.53;;;1.38;;
47219;SDS011;32961;51.936;4.788;2023-04-25T11:49:35;9.43;;;2.15;;
47219;SDS011;32961;51.936;4.788;2023-04-25T11:52:09;8.73;;;1.50;;
47219;SDS011;32961;51.936;4.788;2023-04-25T11:54:37;11.05;;;1.60;;
47219;SDS011;32961;51.936;4.788;2023-04-25T11:57:05;13.57;;;1.88;;
47219;SDS011;32961;51.936;4.788;2023-04-25T11:59:33;7.90;;;1.45;;
47219;SDS011;32961;51.936;4.788;2023-04-25T12:02:02;6.65;;;2.05;;
47219;SDS011;32961;51.936;4.788;2023-04-25T12:04:34;6.38;;;1.17;;
47219;SDS011;32961;51.936;4.788;2023-04-25T12:07:03;6.60;;;1.60;;
47219;SDS011;32961;51.936;4.788;2023-04-25T12:09:31;6.65;;;1.10;;
47219;SDS011;32961;51.936;4.788;2023-04-25T12:12:00;7.13;;;1.42;;
47219;SDS011;32961;51.936;4.788;2023-04-25T12:14:33;10.65;;;1.52;;
47219;SDS011;32961;51.936;4.788;2023-04-25T12:17:03;10.27;;;1.65;;
47219;SDS011;32961;51.936;4.788;2023-04-25T12:19:37;13.32;;;2.28;;
47219;SDS011;32961;51.936;4.788;2023-04-25T12:22:18;6.22;;;2.00;;
47219;SDS011;32961;51.936;4.788;2023-04-25T12:24:53;10.25;;;1.58;;
47219;SDS011;32961;51.936;4.788;2023-04-25T12:27:22;9.30;;;2.13;;
47219;SDS011;32961;51.936;4.788;2023-04-25T12:29:55;8.45;;;1.60;;
47219;SDS011;32961;51.936;4.788;2023-04-25T12:32:24;10.38;;;1.52;;
47219;SDS011;32961;51.936;4.788;2023-04-25T12:34:53;10.25;;;1.73;;
47219;SDS011;32961;51.936;4.788;2023-04-25T12:37:22;6.35;;;1.98;;
47219;SDS011;32961;51.936;4.788;2023-04-25T12:39:49;13.07;;;1.40;;
47219;SDS011;32961;51.936;4.788;2023-04-25T12:42:17;10.57;;;2.22;;
47219;SDS011;32961;51.936;4.788;2023-04-25T12:44:45;4.38;;;1.58;;
47219;SDS011;32961;51.936;4.788;2023-04-25T12:47:13;5.68;;;1.20;;
47219;SDS011;32961;51.936;4.788;2023-04-25T12:49:42;6.85;;;1.30;;
47219;SDS011;32961;51.936;4.788;2023-04-25T12:52:11;5.95;;;1.60;;
47219;SDS011;32961;51.936;4.788;2023-04-25T12:54:39;6.93;;;2.22;;
47219;SDS011;32961;51.936;4.788;2023-04-25T12:57:07;5.85;;;1.40;;
47219;SDS011;32961;51.936;4.788;2023-04-25T12:59:35;3.55;;;1.42;;
47219;SDS011;32961;51.936;4.788;2023-04-25T13:02:02;4.03;;;1.50;;
47219;SDS011;32961;51.936;4.788;2023-04-25T13:04:31;5.45;;;1.40;;
47219;SDS011;32961;51.936;4.788;2023-04-25T13:06:59;9.57;;;1.92;;
47219;SDS011;32961;51.936;4.788;2023-04-25T13:09:28;9.68;;;1.88;;
47219;SDS011;32961;51.936;4.788;2023-04-25T13:11:56;22.92;;;4.97;;
47219;SDS011;32961;51.936;4.788;2023-04-25T13:14:25;7.03;;;1.90;;
47219;SDS011;32961;51.936;4.788;2023-04-25T13:16:53;7.00;;;1.50;;
47219;SDS011;32961;51.936;4.788;2023-04-25T13:19:21;10.48;;;1.95;;
47219;SDS011;32961;51.936;4.788;2023-04-25T13:21:49;8.68;;;1.55;;
47219;SDS011;32961;51.936;4.788;2023-04-25T13:24:17;6.85;;;1.50;;
47219;SDS011;32961;51.936;4.788;2023-04-25T13:26:46;10.77;;;1.75;;
47219;SDS011;32961;51.936;4.788;2023-04-25T13:29:14;12.98;;;2.03;;
47219;SDS011;32961;51.936;4.788;2023-04-25T13:31:42;12.45;;;3.05;;
47219;SDS011;32961;51.936;4.788;2023-04-25T13:34:10;3.15;;;1.23;;
47219;SDS011;32961;51.936;4.788;2023-04-25T13:36:38;9.68;;;1.48;;
47219;SDS011;32961;51.936;4.788;2023-04-25T13:39:07;8.18;;;1.88;;
47219;SDS011;32961;51.936;4.788;2023-04-25T13:41:34;7.05;;;1.45;;
47219;SDS011;32961;51.936;4.788;2023-04-25T13:44:04;10.10;;;2.38;;
47219;SDS011;32961;51.936;4.788;2023-04-25T13:46:35;5.20;;;1.33;;
47219;SDS011;32961;51.936;4.788;2023-04-25T13:49:06;10.18;;;2.65;;
47219;SDS011;32961;51.936;4.788;2023-04-25T13:51:38;13.52;;;2.17;;
47219;SDS011;32961;51.936;4.788;2023-04-25T13:54:07;6.78;;;1.92;;
47219;SDS011;32961;51.936;4.788;2023-04-25T13:56:35;8.15;;;2.45;;
47219;SDS011;32961;51.936;4.788;2023-04-25T13:59:03;5.82;;;1.35;;
47219;SDS011;32961;51.936;4.788;2023-04-25T14:01:32;8.48;;;1.70;;
47219;SDS011;32961;51.936;4.788;2023-04-25T14:04:02;7.35;;;2.03;;
47219;SDS011;32961;51.936;4.788;2023-04-25T14:06:31;11.27;;;1.60;;
47219;SDS011;32961;51.936;4.788;2023-04-25T14:08:59;8.88;;;2.15;;
47219;SDS011;32961;51.936;4.788;2023-04-25T14:11:27;6.05;;;1.52;;
47219;SDS011;32961;51.936;4.788;2023-04-25T14:13:55;7.80;;;1.75;;
47219;SDS011;32961;51.936;4.788;2023-04-25T14:16:27;10.65;;;2.28;;
47219;SDS011;32961;51.936;4.788;2023-04-25T14:18:56;9.00;;;1.55;;
47219;SDS011;32961;51.936;4.788;2023-04-25T14:21:24;7.78;;;2.10;;
47219;SDS011;32961;51.936;4.788;2023-04-25T14:23:53;5.45;;;1.40;;
47219;SDS011;32961;51.936;4.788;2023-04-25T14:26:21;8.43;;;1.60;;
47219;SDS011;32961;51.936;4.788;2023-04-25T14:28:49;6.60;;;1.70;;
47219;SDS011;32961;51.936;4.788;2023-04-25T14:31:17;7.57;;;1.73;;
47219;SDS011;32961;51.936;4.788;2023-04-25T14:33:47;6.25;;;1.67;;
47219;SDS011;32961;51.936;4.788;2023-04-25T14:36:16;7.53;;;1.67;;
47219;SDS011;32961;51.936;4.788;2023-04-25T14:38:44;6.28;;;1.58;;
47219;SDS011;32961;51.936;4.788;2023-04-25T14:41:12;6.43;;;1.50;;
47219;SDS011;32961;51.936;4.788;2023-04-25T14:43:40;9.70;;;1.42;;
47219;SDS011;32961;51.936;4.788;2023-04-25T14:46:09;10.88;;;2.53;;
47219;SDS011;32961;51.936;4.788;2023-04-25T14:48:37;8.57;;;1.58;;
47219;SDS011;32961;51.936;4.788;2023-04-25T14:51:07;4.47;;;1.50;;
47219;SDS011;32961;51.936;4.788;2023-04-25T14:53:35;8.00;;;1.50;;
47219;SDS011;32961;51.936;4.788;2023-04-25T14:56:04;5.38;;;1.45;;
47219;SDS011;32961;51.936;4.788;2023-04-25T14:58:33;9.45;;;1.70;;
47219;SDS011;32961;51.936;4.788;2023-04-25T15:01:01;5.95;;;1.35;;